Time;durP1;ratioP1;P1;durP2;ratioP2;P2;SDS_P1;SDS_P2;PMS_P1;PMS_P2;Temp;Humidity;BMP_temperature;BMP_pressure;BME280_temperature;BME280_humidity;BME280_pressure;Samples;Min_cycle;Max_cycle;Signal;HPM_P1;HPM_P2
2023/03/19 00:01:23;;;;;;;6.88;3.60;;;11.40;99.90;;;;;;5044109;28;20417;-59
2023/03/19 00:03:50;;;;;;;7.78;3.10;;;11.20;1.00;;;;;;5046804;28;20417;-61
2023/03/19 00:06:17;;;;;;;5.82;3.28;;;11.30;1.00;;;;;;5047782;28;20426;-61
2023/03/19 00:08:44;;;;;;;6.30;3.17;;;11.40;99.90;;;;;;5050490;28;20435;-62
2023/03/19 00:11:13;;;;;;;6.80;3.47;;;11.30;99.90;;;;;;5039548;28;20473;-62
2023/03/19 00:13:40;;;;;;;5.75;3.03;;;11.20;99.90;;;;;;5041831;28;20466;-62
2023/03/19 00:16:07;;;;;;;5.72;2.90;;;11.30;99.90;;;;;;5037381;28;20415;-62
2023/03/19 00:18:36;;;;;;;6.85;3.13;;;11.30;99.90;;;;;;5048261;28;20779;-61
2023/03/19 00:21:02;;;;;;;6.55;2.85;;;11.30;99.90;;;;;;5044650;28;20898;-62
2023/03/19 00:23:30;;;;;;;4.72;3.08;;;11.50;99.90;;;;;;5050250;28;20573;-62
2023/03/19 00:25:56;;;;;;;4.38;2.72;;;11.60;99.90;;;;;;5060247;28;20458;-62
2023/03/19 00:28:23;;;;;;;7.28;3.33;;;11.70;70.20;;;;;;5042314;28;20411;-62
2023/03/19 00:30:50;;;;;;;6.47;2.90;;;11.80;1.00;;;;;;5045683;28;20421;-62
2023/03/19 00:33:16;;;;;;;6.95;3.30;;;11.50;99.90;;;;;;5045082;28;20467;-62
2023/03/19 00:35:45;;;;;;;5.05;2.78;;;11.50;1.00;;;;;;5042774;28;20422;-62
2023/03/19 00:38:11;;;;;;;4.78;2.75;;;11.40;99.90;;;;;;5040766;28;20454;-61
2023/03/19 00:40:38;;;;;;;7.15;3.03;;;11.30;99.90;;;;;;5045383;28;20420;-61
2023/03/19 00:43:05;;;;;;;4.93;2.90;;;11.20;1.00;;;;;;5041890;28;20469;-62
2023/03/19 00:45:32;;;;;;;6.80;2.80;;;11.20;1.00;;;;;;5042733;28;20425;-62
2023/03/19 00:47:58;;;;;;;6.60;3.10;;;11.40;99.90;;;;;;5043814;28;20469;-62
2023/03/19 00:50:25;;;;;;;6.43;3.08;;;11.60;99.90;;;;;;5046805;28;20449;-62
2023/03/19 00:52:54;;;;;;;4.32;2.90;;;11.70;1.00;;;;;;5048585;28;20417;-61
2023/03/19 00:55:20;;;;;;;6.75;4.35;;;11.70;1.00;;;;;;5054949;28;20964;-62
2023/03/19 00:57:47;;;;;;;8.95;4.13;;;11.60;1.00;;;;;;5044830;28;20419;-62
2023/03/19 01:00:15;;;;;;;6.90;3.50;;;11.60;1.00;;;;;;5041602;28;20409;-62
2023/03/19 01:02:41;;;;;;;5.60;2.97;;;11.50;24.70;;;;;;5044799;28;20459;-62
2023/03/19 01:05:08;;;;;;;6.63;3.30;;;11.40;59.30;;;;;;5042944;28;20445;-62
2023/03/19 01:07:35;;;;;;;6.32;2.80;;;11.30;82.80;;;;;;5045360;28;20441;-61
2023/03/19 01:10:04;;;;;;;6.18;3.38;;;11.20;92.50;;;;;;5038470;28;20411;-61
2023/03/19 01:12:31;;;;;;;6.47;3.30;;;11.10;98.80;;;;;;5041658;28;20427;-62
2023/03/19 01:14:57;;;;;;;6.32;3.20;;;10.90;99.90;;;;;;5044581;28;20411;-62
2023/03/19 01:17:24;;;;;;;8.13;3.28;;;10.90;99.90;;;;;;5041700;28;20423;-62
2023/03/19 01:19:51;;;;;;;6.25;3.40;;;10.70;99.90;;;;;;5038225;28;20447;-62
2023/03/19 01:22:18;;;;;;;5.13;3.13;;;10.70;99.90;;;;;;5042822;28;20500;-61
2023/03/19 01:24:44;;;;;;;7.20;2.92;;;10.70;99.90;;;;;;5051887;28;20818;-62
2023/03/19 01:27:12;;;;;;;4.38;3.00;;;10.70;99.90;;;;;;5045781;28;20415;-62
2023/03/19 01:29:39;;;;;;;6.38;3.22;;;10.60;99.90;;;;;;5044281;28;20414;-62
2023/03/19 01:32:06;;;;;;;4.97;2.95;;;10.70;99.90;;;;;;5044333;28;20425;-62
2023/03/19 01:34:33;;;;;;;5.32;3.15;;;10.60;99.90;;;;;;5041386;28;20430;-61
2023/03/19 01:37:00;;;;;;;5.70;2.90;;;10.70;99.90;;;;;;5044196;28;20421;-62
2023/03/19 01:39:27;;;;;;;5.57;3.10;;;10.70;99.90;;;;;;5032093;28;20521;-62
2023/03/19 01:41:54;;;;;;;6.03;3.17;;;10.70;99.90;;;;;;5031853;28;20485;-62
2023/03/19 01:44:26;;;;;;;6.63;3.33;;;10.70;99.90;;;;;;5031646;28;20822;-62
2023/03/19 01:46:54;;;;;;;5.53;3.15;;;10.50;99.90;;;;;;5031761;28;20502;-62
2023/03/19 01:49:23;;;;;;;6.10;3.28;;;10.30;99.90;;;;;;5030683;28;20824;-62
2023/03/19 01:51:51;;;;;;;5.68;3.20;;;10.20;99.90;;;;;;5043377;28;20433;-61
2023/03/19 01:54:20;;;;;;;6.57;3.17;;;10.10;99.90;;;;;;5046290;28;20974;-61
2023/03/19 01:56:51;;;;;;;7.07;3.38;;;10.20;99.90;;;;;;5052785;28;20432;-61
2023/03/19 01:59:22;;;;;;;9.00;3.53;;;10.20;99.90;;;;;;5043865;28;20414;-62
2023/03/19 02:01:56;;;;;;;6.73;2.80;;;10.20;99.90;;;;;;5041803;28;20461;-62
2023/03/19 02:04:24;;;;;;;7.15;3.17;;;10.20;99.90;;;;;;5036968;28;20415;-61
2023/03/19 02:06:51;;;;;;;4.23;2.90;;;10.20;99.90;;;;;;5040644;28;20889;-62
2023/03/19 02:09:18;;;;;;;6.75;3.30;;;10.30;99.90;;;;;;5043792;28;20418;-60
2023/03/19 02:11:45;;;;;;;6.55;3.00;;;10.30;99.90;;;;;;5041225;28;20417;-61
2023/03/19 02:14:12;;;;;;;5.95;2.80;;;10.40;99.90;;;;;;5038894;28;20511;-62
2023/03/19 02:16:39;;;;;;;5.57;3.20;;;10.40;99.90;;;;;;5036588;28;20477;-62
2023/03/19 02:19:13;;;;;;;6.05;3.22;;;10.40;99.90;;;;;;5040871;28;20419;-61
2023/03/19 02:21:40;;;;;;;5.97;3.20;;;10.40;99.90;;;;;;5039042;28;20489;-61
2023/03/19 02:24:12;;;;;;;4.43;3.20;;;10.40;99.50;;;;;;5047596;28;20508;-62
2023/03/19 02:26:41;;;;;;;5.75;3.28;;;10.50;97.70;;;;;;5047837;28;20417;-62
2023/03/19 02:29:09;;;;;;;6.15;3.53;;;10.50;95.60;;;;;;5042410;28;20815;-61
2023/03/19 02:31:35;;;;;;;5.25;3.47;;;10.40;96.90;;;;;;5042543;28;20471;-62
2023/03/19 02:34:04;;;;;;;7.32;3.20;;;10.40;99.40;;;;;;5042611;28;20463;-62
2023/03/19 02:36:36;;;;;;;6.30;3.20;;;10.30;96.30;;;;;;5041900;28;20421;-61
2023/03/19 02:39:05;;;;;;;7.53;3.38;;;10.30;93.60;;;;;;5038712;28;20415;-63
2023/03/19 02:41:32;;;;;;;7.20;3.47;;;10.30;91.00;;;;;;5030906;28;20444;-63
2023/03/19 02:44:04;;;;;;;7.13;3.10;;;10.30;83.10;;;;;;5030795;28;20421;-63
2023/03/19 02:46:31;;;;;;;6.67;2.90;;;10.40;78.40;;;;;;5038492;28;20870;-63
2023/03/19 02:48:58;;;;;;;6.72;2.78;;;10.40;75.40;;;;;;5041132;28;20440;-59
2023/03/19 02:51:25;;;;;;;5.00;2.90;;;10.40;70.50;;;;;;5039419;28;20505;-60
2023/03/19 02:53:51;;;;;;;7.57;2.90;;;10.50;66.20;;;;;;5050812;28;20414;-63
2023/03/19 02:56:18;;;;;;;5.18;2.90;;;10.50;58.30;;;;;;5048811;28;20419;-63
2023/03/19 02:58:45;;;;;;;7.38;3.40;;;10.40;59.30;;;;;;5041826;28;20757;-63
2023/03/19 03:01:13;;;;;;;5.90;3.05;;;10.40;59.20;;;;;;5037820;28;20959;-63
2023/03/19 03:03:40;;;;;;;7.47;2.90;;;10.50;57.70;;;;;;5041710;28;20432;-63
2023/03/19 03:06:07;;;;;;;5.18;2.65;;;10.60;55.40;;;;;;5040378;28;20414;-63
2023/03/19 03:08:33;;;;;;;5.55;2.90;;;10.60;50.50;;;;;;5039170;28;20409;-63
2023/03/19 03:11:00;;;;;;;5.50;2.90;;;10.60;51.70;;;;;;5039828;28;20422;-63
2023/03/19 03:13:28;;;;;;;3.92;2.67;;;10.50;55.60;;;;;;5039709;28;20505;-63
2023/03/19 03:15:55;;;;;;;7.60;2.78;;;10.50;57.10;;;;;;5038824;28;20465;-63
2023/03/19 03:18:23;;;;;;;7.70;2.50;;;10.50;54.40;;;;;;5040633;28;20602;-63
2023/03/19 03:20:49;;;;;;;4.90;2.88;;;10.60;52.50;;;;;;5041689;28;20472;-60
2023/03/19 03:23:16;;;;;;;15.18;6.88;;;10.70;46.20;;;;;;5043644;28;20443;-63
2023/03/19 03:25:43;;;;;;;11.27;5.03;;;10.80;40.10;;;;;;5054164;28;20884;-63
2023/03/19 03:28:11;;;;;;;6.50;3.50;;;10.60;33.60;;;;;;5034918;28;20420;-60
2023/03/19 03:30:37;;;;;;;6.27;2.73;;;10.50;42.20;;;;;;5039451;28;20765;-63
2023/03/19 03:33:04;;;;;;;5.28;2.47;;;10.60;47.70;;;;;;5039019;28;20892;-63
2023/03/19 03:35:32;;;;;;;19.80;8.57;;;10.70;40.40;;;;;;5040701;28;20945;-63
2023/03/19 03:37:59;;;;;;;25.23;11.57;;;10.60;43.90;;;;;;5041385;28;20816;-63
2023/03/19 03:40:26;;;;;;;30.02;15.20;;;10.60;44.40;;;;;;5030382;28;20780;-60
2023/03/19 03:42:53;;;;;;;10.43;4.65;;;10.50;48.30;;;;;;5030436;28;20442;-63
2023/03/19 03:45:19;;;;;;;5.85;3.10;;;10.60;51.70;;;;;;5030166;28;20762;-63
2023/03/19 03:47:46;;;;;;;4.03;2.83;;;10.50;59.90;;;;;;5030280;28;20461;-63
2023/03/19 03:50:13;;;;;;;10.15;4.50;;;10.50;54.70;;;;;;5030270;28;20419;-63
2023/03/19 03:52:41;;;;;;;15.20;6.78;;;10.50;49.50;;;;;;5030349;28;20429;-63
2023/03/19 03:55:09;;;;;;;6.55;3.20;;;10.50;56.30;;;;;;5047986;28;20422;-59
2023/03/19 03:57:36;;;;;;;4.40;2.65;;;10.50;63.60;;;;;;5041267;28;20760;-63
2023/03/19 04:00:03;;;;;;;5.75;2.60;;;10.50;62.20;;;;;;5036096;28;20680;-63
2023/03/19 04:02:30;;;;;;;24.77;10.95;;;10.50;66.60;;;;;;5038763;28;20419;-63
2023/03/19 04:04:57;;;;;;;8.73;3.30;;;10.50;64.10;;;;;;5038523;28;20797;-63
2023/03/19 04:07:23;;;;;;;4.82;2.40;;;10.50;64.00;;;;;;5039321;28;20415;-63
2023/03/19 04:09:51;;;;;;;3.78;2.40;;;10.50;61.90;;;;;;5041396;28;20417;-62
2023/03/19 04:12:18;;;;;;;4.85;2.40;;;10.60;59.90;;;;;;5040134;28;20424;-63
2023/03/19 04:14:45;;;;;;;5.95;2.50;;;10.60;62.00;;;;;;5041951;28;20446;-63
2023/03/19 04:17:12;;;;;;;7.57;2.92;;;10.70;55.00;;;;;;5047670;28;20508;-63
2023/03/19 04:19:38;;;;;;;5.25;2.58;;;10.70;59.20;;;;;;5044936;28;20473;-62
2023/03/19 04:22:06;;;;;;;3.78;2.58;;;10.70;58.30;;;;;;5044950;28;20409;-63
2023/03/19 04:24:33;;;;;;;6.82;3.00;;;10.70;58.90;;;;;;5049536;28;20419;-63
2023/03/19 04:27:01;;;;;;;5.47;2.70;;;10.70;63.50;;;;;;5049242;28;20419;-63
2023/03/19 04:29:27;;;;;;;5.78;2.80;;;10.60;59.00;;;;;;5040016;28;20443;-63
2023/03/19 04:31:54;;;;;;;5.50;3.00;;;10.70;55.50;;;;;;5040713;28;20415;-60
2023/03/19 04:34:21;;;;;;;5.72;2.70;;;10.70;55.40;;;;;;5040534;28;20417;-60
2023/03/19 04:36:48;;;;;;;5.68;2.60;;;10.70;55.20;;;;;;5043177;28;20422;-63
2023/03/19 04:39:15;;;;;;;4.75;2.80;;;10.70;55.60;;;;;;5041558;28;20419;-63
2023/03/19 04:41:42;;;;;;;5.33;2.90;;;10.70;55.70;;;;;;5040674;28;20483;-63
2023/03/19 04:44:10;;;;;;;4.47;2.42;;;10.70;66.90;;;;;;5043692;28;20749;-62
2023/03/19 04:46:37;;;;;;;6.28;2.30;;;10.70;71.80;;;;;;5043750;28;20453;-63
2023/03/19 04:49:03;;;;;;;4.85;2.50;;;10.70;78.50;;;;;;5043813;28;20409;-62
2023/03/19 04:51:30;;;;;;;5.30;2.42;;;10.70;74.40;;;;;;5041211;28;20421;-66
2023/03/19 04:53:57;;;;;;;5.78;2.88;;;10.70;80.60;;;;;;5042557;28;20426;-61
2023/03/19 04:56:24;;;;;;;4.37;2.53;;;10.70;80.80;;;;;;5046507;28;20573;-62
2023/03/19 04:58:51;;;;;;;4.78;2.60;;;10.70;87.50;;;;;;5046351;28;20421;-62
2023/03/19 05:01:19;;;;;;;5.13;2.80;;;10.70;93.50;;;;;;5050124;28;20425;-62
2023/03/19 05:03:46;;;;;;;3.85;2.90;;;10.70;94.10;;;;;;5041527;28;20410;-62
2023/03/19 05:06:12;;;;;;;5.68;2.78;;;10.80;93.20;;;;;;5040197;28;20499;-62
2023/03/19 05:08:39;;;;;;;5.35;2.70;;;10.80;92.20;;;;;;5039966;28;20415;-63
2023/03/19 05:11:06;;;;;;;4.85;3.10;;;10.90;92.50;;;;;;5038369;28;20454;-62
2023/03/19 05:13:33;;;;;;;6.25;3.20;;;11.00;88.90;;;;;;5044766;28;20508;-63
2023/03/19 05:16:00;;;;;;;3.65;2.60;;;11.00;82.90;;;;;;5044111;28;20413;-63
2023/03/19 05:18:28;;;;;;;4.72;2.60;;;11.00;88.80;;;;;;5042501;28;20415;-63
2023/03/19 05:20:55;;;;;;;6.13;3.17;;;11.00;79.20;;;;;;5037582;28;20442;-63
2023/03/19 05:23:22;;;;;;;6.82;2.53;;;11.00;74.60;;;;;;5042546;28;20945;-63
2023/03/19 05:25:49;;;;;;;4.25;2.60;;;11.10;78.70;;;;;;5058041;28;20513;-63
2023/03/19 05:28:16;;;;;;;6.07;2.53;;;10.90;86.40;;;;;;5040922;28;20411;-63
2023/03/19 05:30:42;;;;;;;4.33;2.40;;;11.00;87.70;;;;;;5045054;28;20477;-63
2023/03/19 05:33:09;;;;;;;5.82;2.65;;;11.10;84.40;;;;;;5040532;28;20435;-63
2023/03/19 05:35:38;;;;;;;4.78;2.60;;;11.20;81.40;;;;;;5048239;28;20455;-63
2023/03/19 05:38:05;;;;;;;5.10;2.67;;;11.00;83.70;;;;;;5040483;28;20804;-62
2023/03/19 05:40:33;;;;;;;5.25;2.60;;;11.10;83.60;;;;;;5040844;28;20419;-63
2023/03/19 05:43:00;;;;;;;3.22;2.42;;;11.00;80.30;;;;;;5040965;28;20421;-63
2023/03/19 05:45:26;;;;;;;3.97;2.90;;;11.10;79.50;;;;;;5040191;28;20415;-63
2023/03/19 05:47:53;;;;;;;4.50;2.53;;;11.10;80.50;;;;;;5044300;28;20469;-63
2023/03/19 05:50:21;;;;;;;5.75;2.65;;;11.00;78.40;;;;;;5040684;28;20423;-63
2023/03/19 05:52:49;;;;;;;3.60;2.60;;;11.00;82.60;;;;;;5043749;28;20427;-63
2023/03/19 05:55:16;;;;;;;6.07;3.00;;;11.10;94.30;;;;;;5058365;28;20423;-63
2023/03/19 05:57:42;;;;;;;6.03;2.70;;;11.00;99.90;;;;;;5043624;28;20469;-63
2023/03/19 06:00:11;;;;;;;5.00;2.87;;;11.00;99.90;;;;;;5039174;28;20415;-62
2023/03/19 06:02:38;;;;;;;5.87;3.17;;;10.70;99.90;;;;;;5039992;28;20525;-63
2023/03/19 06:05:06;;;;;;;5.88;3.53;;;10.70;99.90;;;;;;5044088;28;20527;-63
2023/03/19 06:07:32;;;;;;;4.50;3.25;;;10.70;99.90;;;;;;5043736;28;20460;-63
2023/03/19 06:10:00;;;;;;;4.93;3.63;;;10.60;99.90;;;;;;5038731;28;20413;-63
2023/03/19 06:12:27;;;;;;;5.97;3.60;;;10.70;99.90;;;;;;5042022;28;20413;-63
2023/03/19 06:14:54;;;;;;;7.03;3.72;;;10.80;99.90;;;;;;5039148;28;20414;-63
2023/03/19 06:17:21;;;;;;;5.80;4.00;;;10.80;99.90;;;;;;5042625;28;20459;-63
2023/03/19 06:19:47;;;;;;;6.68;4.38;;;10.70;99.90;;;;;;5042264;28;20840;-63
2023/03/19 06:22:14;;;;;;;6.35;4.43;;;10.60;99.90;;;;;;5038671;28;20903;-63
2023/03/19 06:24:41;;;;;;;6.33;4.17;;;10.60;99.90;;;;;;5051578;28;20916;-63
2023/03/19 06:27:09;;;;;;;7.57;4.35;;;10.60;99.90;;;;;;5046741;28;20915;-63
2023/03/19 06:29:36;;;;;;;8.85;4.68;;;10.60;99.90;;;;;;5042117;28;20563;-60
2023/03/19 06:32:03;;;;;;;6.28;4.30;;;10.70;99.90;;;;;;5039152;28;20423;-60
2023/03/19 06:34:30;;;;;;;6.45;4.20;;;10.80;99.90;;;;;;5039387;28;20427;-60
2023/03/19 06:36:56;;;;;;;5.93;3.78;;;10.80;99.90;;;;;;5043167;28;20410;-62
2023/03/19 06:39:23;;;;;;;7.00;3.90;;;10.90;99.90;;;;;;5045105;28;20421;-60
2023/03/19 06:41:50;;;;;;;5.90;3.90;;;11.00;99.90;;;;;;5038314;28;20413;-60
2023/03/19 06:44:18;;;;;;;6.32;4.15;;;10.90;99.90;;;;;;5038587;28;20797;-63
2023/03/19 06:46:45;;;;;;;7.43;4.40;;;10.70;99.90;;;;;;5043052;28;20417;-63
2023/03/19 06:49:12;;;;;;;6.57;3.92;;;10.70;99.90;;;;;;5040040;28;20414;-63
2023/03/19 06:51:39;;;;;;;6.10;4.25;;;10.70;99.90;;;;;;5043041;28;20644;-63
2023/03/19 06:54:06;;;;;;;5.95;4.20;;;10.80;99.90;;;;;;5048318;28;20429;-63
2023/03/19 06:56:32;;;;;;;7.00;4.45;;;10.80;99.90;;;;;;5050305;28;20422;-63
2023/03/19 06:58:59;;;;;;;5.40;3.80;;;10.70;99.90;;;;;;5039389;28;20465;-63
2023/03/19 07:01:27;;;;;;;7.05;4.85;;;10.70;99.90;;;;;;5043025;28;20466;-62
2023/03/19 07:03:56;;;;;;;5.53;4.60;;;10.50;99.90;;;;;;5030901;28;20407;-63
2023/03/19 07:06:22;;;;;;;6.07;4.60;;;10.50;99.90;;;;;;5030154;28;20437;-62
2023/03/19 07:08:49;;;;;;;5.30;4.15;;;10.40;99.90;;;;;;5030959;28;20419;-61
2023/03/19 07:11:16;;;;;;;5.18;4.35;;;10.50;99.90;;;;;;5030634;28;20457;-62
2023/03/19 07:13:43;;;;;;;8.25;4.68;;;10.40;99.90;;;;;;5030538;28;20476;-63
2023/03/19 07:16:09;;;;;;;5.60;4.40;;;10.50;99.90;;;;;;5035642;28;20411;-63
2023/03/19 07:18:37;;;;;;;6.47;4.07;;;10.50;99.90;;;;;;5042742;28;20413;-63
2023/03/19 07:21:04;;;;;;;6.40;4.50;;;10.50;99.90;;;;;;5039029;28;20414;-63
2023/03/19 07:23:31;;;;;;;4.30;3.90;;;10.70;99.90;;;;;;5046860;28;20461;-63
2023/03/19 07:25:58;;;;;;;5.88;4.10;;;10.80;99.90;;;;;;5057075;28;20468;-62
2023/03/19 07:28:25;;;;;;;5.82;3.55;;;11.00;99.90;;;;;;5039535;28;20410;-60
2023/03/19 07:30:52;;;;;;;5.60;3.80;;;10.90;99.90;;;;;;5040164;28;20750;-62
2023/03/19 07:33:19;;;;;;;6.32;3.90;;;10.90;99.90;;;;;;5038675;28;20427;-60
2023/03/19 07:35:47;;;;;;;6.68;3.85;;;10.90;99.90;;;;;;5040600;28;20463;-62
2023/03/19 07:38:14;;;;;;;6.35;4.03;;;10.80;99.90;;;;;;5042199;28;20439;-63
2023/03/19 07:40:41;;;;;;;5.53;4.50;;;10.70;99.90;;;;;;5041119;28;20425;-63
2023/03/19 07:43:08;;;;;;;7.38;4.75;;;10.60;99.90;;;;;;5041142;28;20827;-63
2023/03/19 07:45:34;;;;;;;6.35;5.13;;;10.60;99.90;;;;;;5039159;28;20418;-62
2023/03/19 07:48:02;;;;;;;6.53;5.22;;;10.50;99.90;;;;;;5043601;28;20465;-62
2023/03/19 07:50:29;;;;;;;6.50;5.05;;;10.40;99.90;;;;;;5042810;28;20426;-63
2023/03/19 07:52:57;;;;;;;6.82;4.95;;;10.50;99.90;;;;;;5046494;28;20775;-62
2023/03/19 07:55:24;;;;;;;8.65;5.38;;;10.40;99.90;;;;;;5064176;28;20465;-62
2023/03/19 07:57:51;;;;;;;6.30;5.05;;;10.60;99.90;;;;;;5044783;28;20443;-63
2023/03/19 08:00:18;;;;;;;7.93;5.55;;;10.50;99.90;;;;;;5044383;28;20799;-62
2023/03/19 08:02:45;;;;;;;6.35;5.18;;;10.70;99.90;;;;;;5042916;28;20481;-63
2023/03/19 08:05:12;;;;;;;6.07;5.10;;;10.80;99.90;;;;;;5043980;28;20415;-62
2023/03/19 08:07:39;;;;;;;8.23;5.28;;;10.90;99.90;;;;;;5044842;28;20413;-62
2023/03/19 08:10:08;;;;;;;6.43;4.30;;;11.00;99.90;;;;;;5041501;28;20415;-62
2023/03/19 08:12:39;;;;;;;6.97;4.90;;;10.90;99.90;;;;;;5045270;28;20417;-62
2023/03/19 08:15:08;;;;;;;6.05;4.53;;;10.90;99.90;;;;;;5033750;28;20972;-62
2023/03/19 08:17:37;;;;;;;6.20;4.82;;;10.90;99.90;;;;;;5034138;28;20476;-62
2023/03/19 08:20:04;;;;;;;5.75;4.78;;;11.00;99.90;;;;;;5042330;28;20413;-62
2023/03/19 08:22:31;;;;;;;5.32;4.47;;;11.00;99.90;;;;;;5051263;28;20896;-60
2023/03/19 08:24:58;;;;;;;5.47;4.50;;;11.20;99.90;;;;;;5078806;28;20926;-63
2023/03/19 08:27:26;;;;;;;7.03;4.83;;;11.10;99.90;;;;;;5058989;28;20982;-63
2023/03/19 08:29:53;;;;;;;5.65;4.50;;;11.20;99.90;;;;;;5047080;28;20438;-63
2023/03/19 08:32:19;;;;;;;7.47;4.90;;;11.20;99.90;;;;;;5052510;28;20533;-63
2023/03/19 08:34:47;;;;;;;7.03;5.10;;;11.10;99.90;;;;;;5043223;28;20488;-63
2023/03/19 08:37:13;;;;;;;6.90;4.40;;;11.10;99.90;;;;;;5050623;28;20429;-62
2023/03/19 08:39:40;;;;;;;7.22;4.78;;;11.20;99.90;;;;;;5043555;28;20422;-62
2023/03/19 08:42:07;;;;;;;6.00;4.53;;;11.30;99.90;;;;;;5041820;28;20418;-63
2023/03/19 08:44:35;;;;;;;5.80;4.60;;;11.10;99.90;;;;;;5045578;28;20453;-61
2023/03/19 08:47:02;;;;;;;6.65;4.25;;;11.10;99.90;;;;;;5042066;28;20411;-61
2023/03/19 08:49:29;;;;;;;5.97;4.70;;;11.10;99.90;;;;;;5041677;28;20441;-62
2023/03/19 08:51:55;;;;;;;7.00;4.65;;;11.00;99.90;;;;;;5042483;28;20423;-61
2023/03/19 08:54:22;;;;;;;7.43;4.70;;;11.10;99.90;;;;;;5050932;28;20479;-62
2023/03/19 08:56:49;;;;;;;4.95;4.30;;;11.20;99.90;;;;;;5046671;28;20463;-61
2023/03/19 08:59:16;;;;;;;5.20;4.60;;;11.10;99.90;;;;;;5043405;28;20417;-62
2023/03/19 09:01:44;;;;;;;6.80;4.78;;;11.10;99.90;;;;;;5032928;28;20415;-62
2023/03/19 09:04:11;;;;;;;7.67;5.20;;;11.20;99.90;;;;;;5032782;28;20441;-61
2023/03/19 09:06:37;;;;;;;5.60;4.43;;;11.20;99.90;;;;;;5032560;28;20423;-62
2023/03/19 09:09:05;;;;;;;5.65;4.38;;;11.30;99.90;;;;;;5032594;28;20465;-62
2023/03/19 09:11:31;;;;;;;5.32;4.28;;;11.50;99.90;;;;;;5032833;28;20815;-62
2023/03/19 09:13:58;;;;;;;5.85;4.15;;;11.70;99.90;;;;;;5032407;28;20431;-62
2023/03/19 09:16:25;;;;;;;5.73;3.83;;;11.50;99.90;;;;;;5042897;28;20417;-62
2023/03/19 09:18:53;;;;;;;4.18;3.58;;;11.50;99.90;;;;;;5041031;28;20415;-61
2023/03/19 09:21:20;;;;;;;6.95;3.78;;;11.60;99.90;;;;;;5045033;28;20486;-62
2023/03/19 09:23:47;;;;;;;5.43;3.90;;;11.70;99.90;;;;;;5047133;28;20420;-62
2023/03/19 09:26:13;;;;;;;5.07;3.42;;;11.70;99.90;;;;;;5049769;28;20413;-62
2023/03/19 09:28:40;;;;;;;5.37;3.50;;;11.70;99.90;;;;;;5040064;28;20415;-62
2023/03/19 09:31:10;;;;;;;4.82;3.10;;;11.60;99.90;;;;;;5044317;28;20417;-62
2023/03/19 09:33:37;;;;;;;5.43;4.00;;;11.70;99.90;;;;;;5041368;28;20426;-62
2023/03/19 09:36:05;;;;;;;5.07;3.92;;;11.70;99.90;;;;;;5043024;28;20416;-62
2023/03/19 09:38:32;;;;;;;5.03;3.88;;;11.70;99.90;;;;;;5041853;28;20514;-62
2023/03/19 09:41:08;;;;;;;5.05;3.53;;;11.80;99.90;;;;;;5041252;28;20415;-62
2023/03/19 09:43:48;;;;;;;4.40;3.80;;;11.90;99.90;;;;;;5040644;28;20424;-62
2023/03/19 09:46:19;;;;;;;4.68;3.85;;;12.00;99.90;;;;;;5037918;28;20407;-62
2023/03/19 09:48:51;;;;;;;4.03;3.58;;;12.00;99.90;;;;;;5040393;28;20476;-61
2023/03/19 09:51:26;;;;;;;5.43;3.63;;;12.20;99.90;;;;;;5041580;28;20418;-60
2023/03/19 09:53:58;;;;;;;4.50;3.65;;;12.40;99.90;;;;;;5044043;28;20464;-61
2023/03/19 09:56:25;;;;;;;4.50;3.70;;;12.60;99.90;;;;;;5051637;28;20897;-61
2023/03/19 09:58:52;;;;;;;4.32;3.65;;;12.80;99.90;;;;;;5040409;28;20533;-61
2023/03/19 10:01:25;;;;;;;4.60;3.50;;;12.70;99.90;;;;;;5043933;28;20424;-62
2023/03/19 10:04:20;;;;;;;4.13;3.55;;;12.70;94.90;;;;;;5031582;28;20407;-60
2023/03/19 10:06:49;;;;;;;4.30;3.67;;;13.00;99.90;;;;;;5031610;28;20410;-61
2023/03/19 10:09:33;;;;;;;3.90;3.50;;;13.10;99.90;;;;;;5044346;28;20419;-60
2023/03/19 10:12:11;;;;;;;5.38;3.55;;;13.10;98.30;;;;;;5039767;28;20410;-61
2023/03/19 10:15:10;;;;;;;5.35;3.70;;;13.20;97.80;;;;;;5039537;28;21079;-61
2023/03/19 10:17:40;;;;;;;3.97;3.58;;;13.00;95.40;;;;;;5038502;28;20784;-61
2023/03/19 10:20:10;;;;;;;4.85;3.60;;;12.90;94.90;;;;;;5030949;28;20419;-60
2023/03/19 10:22:44;;;;;;;4.80;4.03;;;13.00;99.50;;;;;;5031537;28;20415;-61
2023/03/19 10:25:13;;;;;;;4.47;3.70;;;13.00;99.90;;;;;;5055825;28;20408;-62
2023/03/19 10:27:41;;;;;;;4.43;4.03;;;13.00;95.40;;;;;;5044311;28;20780;-62
2023/03/19 10:30:17;;;;;;;4.35;3.95;;;13.10;94.30;;;;;;5040081;28;20794;-63
2023/03/19 10:32:46;;;;;;;4.70;3.70;;;13.20;60.40;;;;;;5039518;28;20419;-62
2023/03/19 10:35:20;;;;;;;6.95;4.95;;;13.20;66.10;;;;;;5040554;28;20431;-62
2023/03/19 10:37:49;;;;;;;5.47;4.33;;;13.20;54.50;;;;;;5039522;28;20485;-62
2023/03/19 10:40:21;;;;;;;4.70;4.20;;;13.30;73.30;;;;;;5039893;28;20415;-62
2023/03/19 10:43:04;;;;;;;4.60;4.10;;;13.30;73.20;;;;;;5039809;28;21092;-63
2023/03/19 10:45:32;;;;;;;4.95;4.45;;;13.60;67.00;;;;;;5039434;28;20781;-62
2023/03/19 10:48:02;;;;;;;4.93;4.50;;;13.60;42.40;;;;;;5043217;28;20413;-62
2023/03/19 10:50:32;;;;;;;5.75;4.53;;;13.60;40.80;;;;;;5041498;28;20451;-63
2023/03/19 10:53:05;;;;;;;5.32;4.82;;;13.70;73.50;;;;;;5040739;28;20418;-62
2023/03/19 10:55:33;;;;;;;5.65;5.15;;;13.70;84.50;;;;;;5052716;28;20457;-62
2023/03/19 10:58:04;;;;;;;6.32;5.70;;;13.90;8.70;;;;;;5044850;28;20419;-62
2023/03/19 11:00:34;;;;;;;6.75;6.15;;;14.00;1.00;;;;;;5031482;28;20432;-62
2023/03/19 11:03:03;;;;;;;6.40;5.80;;;14.00;28.10;;;;;;5030997;28;20759;-63
2023/03/19 11:05:31;;;;;;;6.72;6.13;;;14.20;8.50;;;;;;5030658;28;20441;-63
2023/03/19 11:08:01;;;;;;;6.63;6.03;;;14.10;18.10;;;;;;5030536;28;20902;-63
2023/03/19 11:10:32;;;;;;;5.65;5.15;;;14.30;27.20;;;;;;5039823;28;20465;-63
2023/03/19 11:13:02;;;;;;;5.93;5.43;;;14.40;1.00;;;;;;5039262;28;20483;-63
2023/03/19 11:15:34;;;;;;;6.20;5.60;;;14.60;1.00;;;;;;5040594;28;20469;-63
2023/03/19 11:18:07;;;;;;;6.63;6.00;;;14.80;1.00;;;;;;5041610;28;20549;-63
2023/03/19 11:20:36;;;;;;;6.68;6.10;;;15.00;1.00;;;;;;5040403;28;20482;-63
2023/03/19 11:23:08;;;;;;;6.18;5.68;;;15.20;1.00;;;;;;5043989;28;20454;-63
2023/03/19 11:25:39;;;;;;;5.63;5.22;;;15.20;1.00;;;;;;5050873;28;20477;-63
2023/03/19 11:28:08;;;;;;;6.15;5.65;;;15.40;1.00;;;;;;5034609;28;20418;-63
2023/03/19 11:30:42;;;;;;;6.50;5.80;;;15.50;99.90;;;;;;5034429;28;20543;-63
2023/03/19 11:33:25;;;;;;;7.28;6.68;;;15.60;99.90;;;;;;5043579;28;20441;-64
2023/03/19 11:36:01;;;;;;;8.75;7.95;;;15.60;99.90;;;;;;5045946;28;20519;-64
2023/03/19 11:38:33;;;;;;;12.43;11.23;;;15.30;1.00;;;;;;5042548;28;20420;-61
2023/03/19 11:41:12;;;;;;;8.00;7.30;;;15.30;99.90;;;;;;5056050;28;20507;-64
2023/03/19 11:43:50;;;;;;;7.75;7.15;;;15.30;99.90;;;;;;5053390;28;20537;-62
2023/03/19 11:46:36;;;;;;;8.70;7.90;;;15.30;1.00;;;;;;5055050;28;20405;-62
2023/03/19 11:49:41;;;;;;;3.72;3.42;;;15.00;99.90;;;;;;5049343;28;20413;-64
2023/03/19 11:52:15;;;;;;;2.25;2.05;;;14.40;1.00;;;;;;4984335;28;21236;-64
2023/03/19 11:54:50;;;;;;;2.00;1.50;;;14.10;99.90;;;;;;5036714;28;20425;-63
2023/03/19 11:57:28;;;;;;;2.13;1.83;;;13.80;1.00;;;;;;5050950;28;20425;-63
2023/03/19 12:00:09;;;;;;;2.65;2.42;;;13.40;99.90;;;;;;5042625;28;20881;-64
2023/03/19 12:02:53;;;;;;;2.60;1.80;;;13.10;1.00;;;;;;5033432;28;20418;-63
2023/03/19 12:05:25;;;;;;;2.22;1.63;;;13.00;1.00;;;;;;5041393;28;20436;-63
2023/03/19 12:08:06;;;;;;;3.58;1.80;;;13.00;1.00;;;;;;5049120;28;20423;-62
2023/03/19 12:10:44;;;;;;;3.22;2.25;;;13.10;1.00;;;;;;5045894;28;20417;-63
2023/03/19 12:13:29;;;;;;;3.40;2.37;;;13.20;2.20;;;;;;5042346;28;20414;-64
2023/03/19 12:16:04;;;;;;;3.70;2.38;;;13.40;21.50;;;;;;5033308;28;20430;-61
2023/03/19 12:18:51;;;;;;;3.00;2.70;;;13.50;2.40;;;;;;5042866;28;20786;-64
2023/03/19 12:21:28;;;;;;;3.58;2.75;;;13.50;3.90;;;;;;5043772;28;20420;-63
2023/03/19 12:24:03;;;;;;;3.25;2.85;;;13.30;47.70;;;;;;5045171;28;20508;-63
2023/03/19 12:26:39;;;;;;;4.43;3.40;;;13.00;96.90;;;;;;5057204;28;20415;-63
2023/03/19 12:29:18;;;;;;;4.37;3.60;;;13.10;99.90;;;;;;5039634;28;20472;-64
2023/03/19 12:32:04;;;;;;;4.20;3.80;;;12.90;99.90;;;;;;5042462;28;20411;-64
2023/03/19 12:34:37;;;;;;;6.57;4.50;;;13.00;99.90;;;;;;5042483;28;20413;-64
2023/03/19 12:37:18;;;;;;;6.25;4.85;;;12.90;99.90;;;;;;5042467;28;20422;-64
2023/03/19 12:39:54;;;;;;;5.88;4.70;;;13.00;99.90;;;;;;5046541;28;20405;-63
2023/03/19 12:42:22;;;;;;;6.85;5.60;;;13.00;99.90;;;;;;5046410;28;20501;-63
2023/03/19 12:44:56;;;;;;;6.33;5.07;;;13.00;99.90;;;;;;5044714;28;20802;-63
2023/03/19 12:47:26;;;;;;;5.93;5.25;;;13.10;99.90;;;;;;5043644;28;20413;-63
2023/03/19 12:49:57;;;;;;;6.40;5.80;;;13.10;99.90;;;;;;5039388;28;20752;-62
2023/03/19 12:52:28;;;;;;;7.07;5.73;;;13.30;99.90;;;;;;5042107;28;20481;-62
2023/03/19 12:55:00;;;;;;;7.00;5.70;;;13.50;99.90;;;;;;5057981;28;20486;-62
2023/03/19 12:57:34;;;;;;;7.20;5.70;;;13.60;99.90;;;;;;5041637;28;20477;-64